Huaiyin, China
Current Conditions -  °F | °C
As of 11:00 AM on Thursday 23 Oct 2014 (Local Time) from ZSNJ Reporting Station
Haze Haze  
Wind Chill: 72°   Ceiling: Unl
Heat Index: 72°   Visibility: 1.8mi
Dew Point: 55°   Wind: 4mph
Humidity: 57%   Direction: 170°S
Pressure: 30.15"   Gusts: NA
Location:  33.6°N, 119.02°E
Report Text: ZSNJ 230300Z 17002MPS 130V210 3000 HZ NSC 22/13 Q1021 NOSIG
Loading
Personal Weather Stations






























Interactive Weather Map
Tropical Storm Tracking
New forecast layout! Learn more

10-Day Weather Forecast

Advertisements
Track Severe Weather on mobile